Time;durP1;ratioP1;P1;durP2;ratioP2;P2;SDS_P1;SDS_P2;PMS_P1;PMS_P2;Temp;Humidity;BMP_temperature;BMP_pressure;BME280_temperature;BME280_humidity;BME280_pressure;Samples;Min_cycle;Max_cycle;Signal;HPM_P1;HPM_P2
2022/06/29 00:02:05;;;;;;;8.20;7.45;;;18.50;99.90;;;;;;5032471;28;20025;-79
2022/06/29 00:04:30;;;;;;;7.18;6.57;;;18.40;99.90;;;;;;5048707;28;20045;-81
2022/06/29 00:06:56;;;;;;;8.40;7.45;;;18.40;99.90;;;;;;5050864;28;20022;-81
2022/06/29 00:09:22;;;;;;;7.22;6.63;;;18.40;99.90;;;;;;5051346;28;20033;-80
2022/06/29 00:11:48;;;;;;;8.80;8.10;;;18.50;99.90;;;;;;5051704;28;20081;-80
2022/06/29 00:14:13;;;;;;;8.70;7.90;;;18.50;99.90;;;;;;5038401;28;20034;-80
2022/06/29 00:16:39;;;;;;;8.85;7.55;;;18.40;99.90;;;;;;5013124;28;20026;-80
2022/06/29 00:19:05;;;;;;;7.25;6.47;;;18.40;99.90;;;;;;5032814;28;20054;-81
2022/06/29 00:21:32;;;;;;;8.07;7.28;;;18.40;99.90;;;;;;5032210;28;20175;-82
2022/06/29 00:23:59;;;;;;;8.52;7.72;;;18.40;99.90;;;;;;5030824;28;20021;-82
2022/06/29 00:26:26;;;;;;;9.18;6.85;;;18.40;99.90;;;;;;5024330;28;20119;-82
2022/06/29 00:28:52;;;;;;;6.45;5.95;;;18.30;99.90;;;;;;5051186;28;20047;-80
2022/06/29 00:31:18;;;;;;;5.95;5.45;;;18.30;99.90;;;;;;5036107;28;20033;-81
2022/06/29 00:33:44;;;;;;;7.18;6.57;;;18.30;99.90;;;;;;5051961;28;20021;-80
2022/06/29 00:36:09;;;;;;;12.40;9.90;;;18.20;99.90;;;;;;5051422;28;20088;-80
2022/06/29 00:38:35;;;;;;;10.93;9.65;;;18.20;99.90;;;;;;5050855;28;20494;-81
2022/06/29 00:41:01;;;;;;;9.85;8.95;;;18.20;99.90;;;;;;5033811;28;20048;-82
2022/06/29 00:43:27;;;;;;;7.45;6.70;;;18.10;99.90;;;;;;5050537;28;20032;-82
2022/06/29 00:45:53;;;;;;;7.18;6.20;;;18.20;99.90;;;;;;5034589;28;20109;-83
2022/06/29 00:48:18;;;;;;;8.48;6.40;;;18.30;99.90;;;;;;5030648;28;20034;-81
2022/06/29 00:50:46;;;;;;;11.55;9.30;;;18.20;99.90;;;;;;5030932;28;20026;-80
2022/06/29 00:53:15;;;;;;;8.70;7.90;;;18.20;99.90;;;;;;5012660;28;20132;-81
2022/06/29 00:55:44;;;;;;;9.00;8.10;;;18.20;99.90;;;;;;5039869;28;20024;-81
2022/06/29 00:58:11;;;;;;;8.23;7.40;;;18.10;99.90;;;;;;5052090;28;20033;-81
2022/06/29 01:00:37;;;;;;;8.70;7.82;;;18.20;99.90;;;;;;5050793;28;20025;-83
2022/06/29 01:03:03;;;;;;;8.05;6.82;;;18.20;99.90;;;;;;5049650;28;20072;-81
2022/06/29 01:05:31;;;;;;;10.85;7.10;;;18.30;99.90;;;;;;5043896;28;20185;-82
2022/06/29 01:07:57;;;;;;;6.60;6.10;;;18.30;99.90;;;;;;5030882;28;20029;-82
2022/06/29 01:10:24;;;;;;;6.25;5.63;;;18.30;99.90;;;;;;5032834;28;20022;-79
2022/06/29 01:12:53;;;;;;;5.45;5.05;;;18.30;99.90;;;;;;5014771;28;20091;-82
2022/06/29 01:15:19;;;;;;;5.63;5.18;;;18.40;99.90;;;;;;5031770;28;20020;-81
2022/06/29 01:17:46;;;;;;;5.53;5.03;;;18.40;99.90;;;;;;5011842;28;20403;-82
2022/06/29 01:20:13;;;;;;;7.15;5.45;;;18.40;99.90;;;;;;5027981;28;20030;-81
2022/06/29 01:22:39;;;;;;;9.23;6.20;;;18.40;99.90;;;;;;5027776;28;20030;-80
2022/06/29 01:25:05;;;;;;;6.85;6.25;;;18.50;99.90;;;;;;5027999;28;20037;-81
2022/06/29 01:27:31;;;;;;;8.05;5.78;;;18.50;99.90;;;;;;5039542;28;20105;-80
2022/06/29 01:29:56;;;;;;;6.80;5.75;;;18.50;99.90;;;;;;5031172;28;20037;-82
2022/06/29 01:32:22;;;;;;;6.20;5.68;;;18.60;99.90;;;;;;5047757;28;20029;-82
2022/06/29 01:34:49;;;;;;;6.32;5.85;;;18.60;99.90;;;;;;5047508;28;20032;-81
2022/06/29 01:37:15;;;;;;;6.53;5.97;;;18.50;99.90;;;;;;5036410;28;20018;-81
2022/06/29 01:39:42;;;;;;;5.88;5.38;;;18.50;99.90;;;;;;5010883;28;20056;-80
2022/06/29 01:42:08;;;;;;;5.20;4.80;;;18.50;99.90;;;;;;5028122;28;20029;-81
2022/06/29 01:44:36;;;;;;;5.90;5.40;;;18.50;99.90;;;;;;5009706;28;20029;-82
2022/06/29 01:47:05;;;;;;;6.50;6.00;;;18.50;99.90;;;;;;5031693;28;20029;-81
2022/06/29 01:49:31;;;;;;;8.50;7.70;;;18.50;99.90;;;;;;5047419;28;20083;-81
2022/06/29 01:51:57;;;;;;;9.88;8.13;;;18.50;99.90;;;;;;5046796;28;20056;-81
2022/06/29 01:54:23;;;;;;;7.00;6.47;;;18.40;99.90;;;;;;5028824;28;20026;-83
2022/06/29 01:56:49;;;;;;;8.07;6.53;;;18.50;99.90;;;;;;5042923;28;20034;-82
2022/06/29 01:59:15;;;;;;;7.13;6.35;;;18.40;99.90;;;;;;5010141;28;20116;-82
2022/06/29 02:01:40;;;;;;;8.15;6.43;;;18.40;99.90;;;;;;5027814;28;20029;-82
2022/06/29 02:04:06;;;;;;;6.22;5.63;;;18.40;99.90;;;;;;5008863;28;20022;-82
2022/06/29 02:06:32;;;;;;;8.23;6.78;;;18.50;99.90;;;;;;5011372;28;20037;-82
2022/06/29 02:08:58;;;;;;;8.65;7.85;;;18.40;99.90;;;;;;5044973;28;20053;-82
2022/06/29 02:11:24;;;;;;;8.93;8.02;;;18.40;99.90;;;;;;5046773;28;20022;-81
2022/06/29 02:13:51;;;;;;;9.13;8.23;;;18.30;99.90;;;;;;5028907;28;20028;-81
2022/06/29 02:16:16;;;;;;;9.75;7.68;;;18.40;99.90;;;;;;5026218;28;20013;-82
2022/06/29 02:18:42;;;;;;;9.75;7.95;;;18.40;99.90;;;;;;5014181;28;20044;-82
2022/06/29 02:21:09;;;;;;;10.63;8.15;;;18.30;99.90;;;;;;5013803;28;20049;-80
2022/06/29 02:23:35;;;;;;;11.32;8.98;;;18.40;99.90;;;;;;5015093;28;20034;-79
2022/06/29 02:26:01;;;;;;;7.85;7.05;;;18.40;99.90;;;;;;5029014;28;20049;-81
2022/06/29 02:28:27;;;;;;;8.00;7.20;;;18.40;99.90;;;;;;5031544;28;20073;-78
2022/06/29 02:36:21;;;;;;;6.95;6.25;;;18.50;99.90;;;;;;5049975;28;20555;-81
2022/06/29 02:38:47;;;;;;;6.00;5.50;;;18.40;99.90;;;;;;5048389;28;20033;-81
2022/06/29 02:41:12;;;;;;;6.20;5.60;;;18.40;99.90;;;;;;5047375;28;20025;-81
2022/06/29 02:43:38;;;;;;;5.72;5.22;;;18.40;99.90;;;;;;5030417;28;20029;-82
2022/06/29 02:46:04;;;;;;;5.63;5.07;;;18.40;99.90;;;;;;5028654;28;20356;-82
2022/06/29 02:48:32;;;;;;;9.95;7.78;;;18.40;99.90;;;;;;5030567;28;20029;-83
2022/06/29 02:50:58;;;;;;;7.43;6.68;;;18.30;99.90;;;;;;5030393;28;20025;-81
2022/06/29 02:53:24;;;;;;;12.23;7.72;;;18.30;99.90;;;;;;5047790;28;20025;-83
2022/06/29 02:55:50;;;;;;;8.48;7.15;;;18.30;99.90;;;;;;5046619;28;20081;-80
2022/06/29 02:58:15;;;;;;;9.07;6.50;;;18.20;99.90;;;;;;5045924;28;20033;-81
2022/06/29 03:00:41;;;;;;;10.98;6.32;;;18.10;99.90;;;;;;5028814;28;20029;-82
2022/06/29 03:03:07;;;;;;;8.70;7.13;;;18.10;99.90;;;;;;5026042;28;20026;-80
2022/06/29 03:05:33;;;;;;;7.82;6.72;;;18.00;99.90;;;;;;5028201;28;20049;-82
2022/06/29 03:07:58;;;;;;;6.80;5.93;;;18.00;99.90;;;;;;5009927;28;20125;-81
2022/06/29 03:10:24;;;;;;;7.40;5.68;;;18.00;99.90;;;;;;5021221;28;20040;-79
2022/06/29 03:12:50;;;;;;;5.88;5.28;;;17.90;99.90;;;;;;5045387;28;20040;-81
2022/06/29 03:15:15;;;;;;;4.95;4.30;;;18.00;99.90;;;;;;5039991;28;20017;-80
2022/06/29 03:17:41;;;;;;;4.60;4.20;;;18.00;99.90;;;;;;5027194;28;20022;-81
2022/06/29 03:20:07;;;;;;;4.45;4.05;;;18.00;99.90;;;;;;5016930;28;20030;-82
2022/06/29 03:22:33;;;;;;;4.25;3.85;;;18.10;99.90;;;;;;5049021;28;20029;-81
2022/06/29 03:24:59;;;;;;;7.07;4.50;;;18.10;99.90;;;;;;5035005;28;20085;-78
2022/06/29 03:27:25;;;;;;;7.63;6.00;;;18.20;99.90;;;;;;5031683;28;20112;-79
2022/06/29 03:29:51;;;;;;;5.88;5.28;;;18.20;99.90;;;;;;5030927;28;20046;-80
2022/06/29 03:32:17;;;;;;;5.10;4.60;;;18.20;99.90;;;;;;5029122;28;20026;-79
2022/06/29 03:34:43;;;;;;;5.25;4.75;;;18.20;99.90;;;;;;5008849;28;20026;-80
2022/06/29 03:37:09;;;;;;;6.93;6.25;;;18.20;99.90;;;;;;5010817;28;20097;-80
2022/06/29 03:39:35;;;;;;;8.35;4.97;;;18.20;99.90;;;;;;5028444;28;20105;-81
2022/06/29 03:42:02;;;;;;;4.32;3.90;;;18.20;99.90;;;;;;5047048;28;20014;-80
2022/06/29 03:44:27;;;;;;;3.80;3.50;;;18.30;99.90;;;;;;5046560;28;20032;-81
2022/06/29 03:46:53;;;;;;;3.83;3.45;;;18.30;99.90;;;;;;5032913;28;20050;-80
2022/06/29 03:49:19;;;;;;;4.63;3.95;;;18.30;99.90;;;;;;5033945;28;20040;-81
2022/06/29 03:51:44;;;;;;;7.97;5.10;;;18.40;99.90;;;;;;5015630;28;20026;-81
2022/06/29 03:54:10;;;;;;;4.90;4.15;;;18.30;99.90;;;;;;5029827;28;20025;-82
2022/06/29 03:56:36;;;;;;;5.03;4.60;;;18.30;99.90;;;;;;5029633;28;20018;-82
2022/06/29 03:59:01;;;;;;;3.85;3.55;;;18.40;99.90;;;;;;5033295;28;20057;-81
2022/06/29 04:01:27;;;;;;;5.40;4.30;;;18.40;99.90;;;;;;5013449;28;20072;-80
2022/06/29 04:03:53;;;;;;;4.20;3.80;;;18.40;99.90;;;;;;5031850;28;20536;-80
2022/06/29 04:06:18;;;;;;;3.72;3.42;;;18.50;99.90;;;;;;5034057;28;20026;-81
2022/06/29 04:08:44;;;;;;;4.00;3.70;;;18.50;99.90;;;;;;5035942;28;20034;-81
2022/06/29 04:13:55;;;;;;;3.38;3.08;;;18.50;99.90;;;;;;5052344;28;20041;-82
2022/06/29 04:16:21;;;;;;;4.57;4.18;;;18.60;99.90;;;;;;5031329;28;20018;-81
2022/06/29 04:18:47;;;;;;;4.68;4.03;;;18.60;99.90;;;;;;5010447;28;20026;-80
2022/06/29 04:21:13;;;;;;;4.82;4.32;;;18.60;99.90;;;;;;5039326;28;20032;-81
2022/06/29 04:23:38;;;;;;;5.88;4.20;;;18.60;99.90;;;;;;5051535;28;20017;-81
2022/06/29 04:26:04;;;;;;;4.60;4.20;;;18.60;99.90;;;;;;5050764;28;20033;-77
2022/06/29 04:28:30;;;;;;;4.55;4.15;;;18.60;99.90;;;;;;5049914;28;20033;-80
2022/06/29 04:30:56;;;;;;;4.15;3.85;;;18.70;99.90;;;;;;5045810;28;20037;-79
2022/06/29 04:33:22;;;;;;;4.97;4.25;;;18.80;99.90;;;;;;5035886;28;20098;-82
2022/06/29 04:35:47;;;;;;;5.30;4.22;;;18.80;99.90;;;;;;5029310;28;20026;-80
2022/06/29 04:38:14;;;;;;;4.18;3.78;;;18.80;99.90;;;;;;5028768;28;20026;-81
2022/06/29 04:40:39;;;;;;;4.10;3.70;;;18.80;99.90;;;;;;5015012;28;20021;-80
2022/06/29 04:43:05;;;;;;;4.75;3.65;;;18.80;99.90;;;;;;5047385;28;20363;-81
2022/06/29 04:48:15;;;;;;;4.28;3.78;;;18.90;99.90;;;;;;5028708;28;20044;-81
2022/06/29 04:50:40;;;;;;;4.50;3.55;;;18.90;99.90;;;;;;5011101;28;20026;-80
2022/06/29 04:53:06;;;;;;;3.58;3.28;;;18.90;99.90;;;;;;5031188;28;20046;-80
2022/06/29 04:55:32;;;;;;;3.47;3.17;;;18.90;99.90;;;;;;5023947;28;20022;-79
2022/06/29 04:57:57;;;;;;;4.88;4.38;;;18.90;99.90;;;;;;5007221;28;20025;-81
2022/06/29 05:00:23;;;;;;;4.57;3.55;;;18.90;99.90;;;;;;5033667;28;20052;-82
2022/06/29 05:02:49;;;;;;;3.53;3.17;;;18.90;99.90;;;;;;5006500;28;20072;-81
2022/06/29 05:05:14;;;;;;;4.10;3.20;;;19.00;99.90;;;;;;5023132;28;20026;-82
2022/06/29 05:07:40;;;;;;;3.90;3.50;;;18.90;99.90;;;;;;5025130;28;20022;-80
2022/06/29 05:10:07;;;;;;;4.20;3.30;;;18.90;99.90;;;;;;5025260;28;20025;-80
2022/06/29 05:12:32;;;;;;;7.40;4.57;;;18.90;99.90;;;;;;5025260;28;20026;-79
2022/06/29 05:14:58;;;;;;;4.47;4.07;;;18.80;99.90;;;;;;5024739;28;20033;-81
2022/06/29 05:17:24;;;;;;;5.38;3.63;;;18.80;99.90;;;;;;5008458;28;20030;-79
2022/06/29 05:19:49;;;;;;;4.70;4.20;;;18.90;99.90;;;;;;5025726;28;20071;-80
2022/06/29 05:22:15;;;;;;;5.90;4.45;;;18.90;99.90;;;;;;5007985;28;20022;-81
2022/06/29 05:24:41;;;;;;;5.35;4.30;;;18.90;99.90;;;;;;5026893;28;20034;-80
2022/06/29 05:27:06;;;;;;;9.10;4.97;;;19.00;99.90;;;;;;5015190;28;20034;-79
2022/06/29 05:29:33;;;;;;;5.75;4.10;;;19.10;99.90;;;;;;5033364;28;20122;-83
2022/06/29 05:31:59;;;;;;;5.40;4.50;;;19.20;99.90;;;;;;5032274;28;20454;-80
2022/06/29 05:34:24;;;;;;;12.90;5.82;;;19.30;99.90;;;;;;5031716;28;20160;-80
2022/06/29 05:36:50;;;;;;;5.97;4.63;;;19.30;99.90;;;;;;5033289;28;20060;-80
2022/06/29 05:39:16;;;;;;;12.95;5.65;;;19.40;99.90;;;;;;5039338;28;20038;-79
2022/06/29 05:41:41;;;;;;;9.70;6.65;;;19.60;99.90;;;;;;5015057;28;20025;-83
2022/06/29 05:44:07;;;;;;;10.77;6.93;;;19.60;99.90;;;;;;5010065;28;20026;-82
2022/06/29 05:46:32;;;;;;;12.10;5.65;;;19.70;99.90;;;;;;5041230;22;20048;-84
2022/06/29 05:48:58;;;;;;;10.20;6.22;;;19.70;99.90;;;;;;5020221;28;20030;-84
2022/06/29 05:51:25;;;;;;;8.45;6.32;;;19.80;99.90;;;;;;5041154;28;20116;-83
2022/06/29 05:53:50;;;;;;;10.15;7.75;;;19.80;99.90;;;;;;5007019;28;20316;-83
2022/06/29 05:56:17;;;;;;;12.90;8.48;;;20.00;99.90;;;;;;5023051;28;20089;-83
2022/06/29 05:58:43;;;;;;;8.20;6.32;;;20.10;99.90;;;;;;5024067;28;20022;-84
2022/06/29 06:01:09;;;;;;;14.50;7.78;;;20.30;99.90;;;;;;5005818;28;20030;-84
2022/06/29 06:03:38;;;;;;;7.30;6.00;;;20.50;99.90;;;;;;5026440;28;20080;-84
2022/06/29 06:06:04;;;;;;;11.80;7.40;;;20.70;99.90;;;;;;5026967;28;20479;-84
2022/06/29 06:08:30;;;;;;;10.63;6.97;;;20.90;99.90;;;;;;5023004;28;20085;-84
2022/06/29 06:10:56;;;;;;;11.10;7.15;;;21.00;99.90;;;;;;5023135;28;20057;-83
2022/06/29 06:13:22;;;;;;;6.70;5.80;;;21.20;99.80;;;;;;5024441;28;20025;-83
2022/06/29 06:15:48;;;;;;;6.63;5.80;;;21.50;99.20;;;;;;5023454;28;20034;-84
2022/06/29 06:18:14;;;;;;;5.50;4.95;;;21.70;98.10;;;;;;5035341;28;20033;-85
2022/06/29 06:20:40;;;;;;;7.45;6.68;;;22.70;97.70;;;;;;5033459;28;20045;-84
2022/06/29 06:23:06;;;;;;;8.65;6.65;;;23.80;94.20;;;;;;5030849;28;20085;-83
2022/06/29 06:25:32;;;;;;;7.10;6.40;;;24.30;92.20;;;;;;5023433;28;20166;-86
2022/06/29 06:27:58;;;;;;;6.40;5.60;;;23.90;90.60;;;;;;5021416;28;20050;-84
2022/06/29 06:30:24;;;;;;;6.88;6.18;;;23.30;91.80;;;;;;5022595;28;20537;-84
2022/06/29 06:32:50;;;;;;;8.15;7.35;;;22.90;92.60;;;;;;5021491;28;20029;-84
2022/06/29 06:35:16;;;;;;;10.95;8.85;;;22.40;93.50;;;;;;5021217;28;20022;-84
2022/06/29 06:37:43;;;;;;;7.95;6.10;;;22.10;93.90;;;;;;5020560;28;20030;-83
2022/06/29 06:42:53;;;;;;;8.68;6.88;;;21.80;94.90;;;;;;5021491;28;20037;-84
2022/06/29 06:45:20;;;;;;;6.32;5.68;;;21.50;96.00;;;;;;5020646;28;20022;-85
2022/06/29 06:47:46;;;;;;;8.45;6.60;;;21.40;96.60;;;;;;5018799;28;20045;-84
2022/06/29 06:50:11;;;;;;;9.10;6.15;;;21.30;96.90;;;;;;5019434;28;20030;-84
2022/06/29 06:52:37;;;;;;;8.65;7.72;;;21.20;97.10;;;;;;5020187;28;20061;-85
2022/06/29 06:55:03;;;;;;;9.52;7.38;;;21.00;97.10;;;;;;5025114;28;20492;-84
2022/06/29 06:57:29;;;;;;;8.25;6.55;;;20.90;97.90;;;;;;5020913;28;20022;-85
2022/06/29 06:59:54;;;;;;;8.30;6.22;;;20.80;98.30;;;;;;5019642;28;20124;-84
2022/06/29 07:02:21;;;;;;;8.70;6.85;;;20.80;98.50;;;;;;5022557;28;20085;-83
2022/06/29 07:04:47;;;;;;;7.85;6.72;;;20.80;98.70;;;;;;5022455;28;20062;-84
2022/06/29 07:07:13;;;;;;;14.60;8.65;;;20.80;98.70;;;;;;5021407;28;20424;-83
2022/06/29 07:09:39;;;;;;;8.70;7.80;;;20.80;98.60;;;;;;5022194;28;20026;-84
2022/06/29 07:12:05;;;;;;;9.65;6.68;;;20.80;99.10;;;;;;5029354;28;20073;-84
2022/06/29 07:14:31;;;;;;;10.02;8.98;;;20.80;99.10;;;;;;5012172;28;20097;-84
2022/06/29 07:16:57;;;;;;;7.30;6.40;;;20.70;98.80;;;;;;5012100;28;20034;-83
2022/06/29 07:19:23;;;;;;;8.65;5.35;;;20.70;99.20;;;;;;5027832;28;20052;-83
2022/06/29 07:21:49;;;;;;;7.50;4.93;;;20.80;99.50;;;;;;5032587;28;20061;-82
2022/06/29 07:24:15;;;;;;;6.13;5.03;;;20.90;99.30;;;;;;5031297;28;20045;-84
2022/06/29 07:26:41;;;;;;;4.72;4.32;;;21.10;99.00;;;;;;5007529;28;20034;-84
2022/06/29 07:29:06;;;;;;;9.90;5.40;;;21.30;98.40;;;;;;5021168;28;20026;-85
2022/06/29 07:31:32;;;;;;;6.57;5.85;;;21.40;97.90;;;;;;5032154;28;20045;-85
2022/06/29 07:33:58;;;;;;;9.68;5.47;;;21.50;97.50;;;;;;5030176;28;20030;-83
2022/06/29 07:36:25;;;;;;;6.03;5.43;;;21.50;97.40;;;;;;5029390;28;20038;-84
2022/06/29 07:38:52;;;;;;;6.55;5.43;;;21.60;97.00;;;;;;5010966;28;20033;-83
2022/06/29 07:41:18;;;;;;;5.53;4.50;;;21.70;96.50;;;;;;5026705;28;20478;-83
2022/06/29 07:43:44;;;;;;;6.05;5.15;;;21.70;96.60;;;;;;5003076;28;20069;-82
2022/06/29 07:46:10;;;;;;;6.32;5.18;;;21.80;96.30;;;;;;5017050;28;20017;-84
2022/06/29 07:48:36;;;;;;;4.82;4.00;;;21.90;96.10;;;;;;5006690;28;20032;-83
2022/06/29 07:51:02;;;;;;;9.30;6.88;;;21.90;96.00;;;;;;5025307;28;20117;-84
2022/06/29 07:53:28;;;;;;;10.25;5.50;;;21.90;95.20;;;;;;5019302;28;20113;-83
2022/06/29 07:55:54;;;;;;;8.65;5.78;;;21.80;95.50;;;;;;5022076;28;20034;-83
2022/06/29 07:58:20;;;;;;;15.50;7.68;;;21.70;95.70;;;;;;5021865;28;20066;-82
2022/06/29 08:00:46;;;;;;;9.52;6.32;;;21.70;95.20;;;;;;5005505;28;20045;-83
2022/06/29 08:03:12;;;;;;;12.48;8.27;;;21.60;95.60;;;;;;5000452;28;20034;-84
2022/06/29 08:05:38;;;;;;;8.63;6.50;;;21.50;95.90;;;;;;4991460;28;20098;-84
2022/06/29 08:08:04;;;;;;;9.40;7.50;;;21.40;96.30;;;;;;5019201;28;20034;-83
2022/06/29 08:10:31;;;;;;;9.75;7.40;;;21.30;96.70;;;;;;5022199;28;20022;-83
2022/06/29 08:12:57;;;;;;;9.05;8.13;;;21.30;96.80;;;;;;5013982;28;20022;-83
2022/06/29 08:15:23;;;;;;;8.57;7.50;;;21.20;97.20;;;;;;5009301;28;20037;-84
2022/06/29 08:17:49;;;;;;;8.15;6.10;;;21.10;97.50;;;;;;5021117;28;20029;-84
2022/06/29 08:20:15;;;;;;;9.48;7.80;;;21.00;98.10;;;;;;5021616;28;20041;-84
2022/06/29 08:22:41;;;;;;;6.10;5.50;;;21.00;97.80;;;;;;5001703;28;20390;-83
2022/06/29 08:25:09;;;;;;;7.35;6.57;;;21.00;97.90;;;;;;5002543;28;20457;-83
2022/06/29 08:27:34;;;;;;;6.47;5.10;;;21.00;98.10;;;;;;5003835;28;20029;-83
2022/06/29 08:30:00;;;;;;;5.32;4.82;;;21.00;98.10;;;;;;5001900;28;20033;-83
2022/06/29 08:32:26;;;;;;;4.53;4.13;;;20.90;98.20;;;;;;5013318;28;20109;-83
2022/06/29 08:34:52;;;;;;;5.53;4.75;;;21.00;98.40;;;;;;5019246;28;20064;-84
2022/06/29 08:37:18;;;;;;;11.82;8.27;;;21.00;98.30;;;;;;5019011;28;20030;-84
2022/06/29 08:39:44;;;;;;;8.25;7.45;;;21.00;98.20;;;;;;5021450;28;20025;-83
2022/06/29 08:42:11;;;;;;;6.50;5.90;;;21.00;98.30;;;;;;5021746;28;20355;-84
2022/06/29 08:44:38;;;;;;;12.98;7.75;;;21.00;98.40;;;;;;5025164;28;20041;-84
2022/06/29 08:47:08;;;;;;;7.88;7.07;;;21.20;98.50;;;;;;5022142;28;20053;-83
2022/06/29 08:49:36;;;;;;;8.55;6.13;;;21.30;97.70;;;;;;5002629;28;20061;-83
2022/06/29 08:52:07;;;;;;;5.32;4.82;;;21.50;97.60;;;;;;5020808;28;20105;-83
2022/06/29 08:54:39;;;;;;;8.83;6.20;;;21.50;97.50;;;;;;5018428;28;20018;-83
2022/06/29 08:57:05;;;;;;;10.65;7.00;;;21.70;96.50;;;;;;5001757;28;20023;-83
2022/06/29 08:59:33;;;;;;;7.65;5.95;;;21.70;95.90;;;;;;5009104;28;20034;-82
2022/06/29 09:01:59;;;;;;;5.47;4.90;;;21.60;96.20;;;;;;5001746;28;20022;-83
2022/06/29 09:04:25;;;;;;;4.78;4.28;;;21.50;96.50;;;;;;5020683;28;20033;-84
2022/06/29 09:06:54;;;;;;;4.88;3.47;;;21.50;96.60;;;;;;5017327;28;20018;-83
2022/06/29 09:09:20;;;;;;;4.93;3.78;;;21.50;96.70;;;;;;5023626;28;20034;-83
2022/06/29 09:11:46;;;;;;;4.25;3.72;;;21.50;96.60;;;;;;5009947;28;20451;-83
2022/06/29 09:14:16;;;;;;;8.23;6.65;;;21.60;96.50;;;;;;5025898;28;20045;-81
2022/06/29 09:16:52;;;;;;;5.57;4.65;;;21.80;95.80;;;;;;5026509;28;20045;-82
2022/06/29 09:19:22;;;;;;;8.50;4.32;;;22.00;95.90;;;;;;5024925;28;20033;-83
2022/06/29 09:21:49;;;;;;;10.60;6.30;;;22.50;95.40;;;;;;5010985;28;20022;-82
2022/06/29 09:24:16;;;;;;;9.70;5.18;;;22.70;93.60;;;;;;5024283;28;20025;-82
2022/06/29 09:26:41;;;;;;;5.05;4.38;;;22.60;93.30;;;;;;4995482;28;20018;-82
2022/06/29 09:29:22;;;;;;;4.70;3.47;;;22.50;93.70;;;;;;5016769;28;20026;-82
2022/06/29 09:32:12;;;;;;;3.88;3.40;;;22.60;93.90;;;;;;5021829;28;20022;-82
2022/06/29 09:34:42;;;;;;;5.50;4.95;;;22.80;93.50;;;;;;4983398;28;20038;-81
2022/06/29 09:37:14;;;;;;;5.43;4.90;;;22.80;93.00;;;;;;4990992;28;20467;-82
2022/06/29 09:39:40;;;;;;;4.60;4.18;;;22.60;92.80;;;;;;4989383;28;20065;-82
2022/06/29 09:42:09;;;;;;;5.65;4.75;;;22.60;93.10;;;;;;5034545;28;20010;-81
2022/06/29 09:44:35;;;;;;;7.13;5.03;;;22.40;93.30;;;;;;5032352;28;20022;-81
2022/06/29 09:47:05;;;;;;;4.50;4.10;;;22.20;93.50;;;;;;5017503;28;20583;-82
2022/06/29 09:49:33;;;;;;;4.45;4.15;;;22.00;94.10;;;;;;5002284;28;20093;-81
2022/06/29 09:52:12;;;;;;;5.57;5.07;;;21.90;94.20;;;;;;5014621;28;20053;-82
2022/06/29 09:54:56;;;;;;;5.22;3.90;;;21.80;94.40;;;;;;5000394;28;20117;-81
2022/06/29 09:57:31;;;;;;;7.43;4.35;;;21.80;94.80;;;;;;4982458;28;20034;-81
2022/06/29 10:02:51;;;;;;;4.82;3.80;;;22.00;94.60;;;;;;5017309;28;20515;-82
2022/06/29 10:05:20;;;;;;;4.13;3.72;;;22.30;94.20;;;;;;5011892;28;20034;-84
2022/06/29 10:07:49;;;;;;;4.78;3.60;;;22.60;93.60;;;;;;5015146;28;20030;-83
2022/06/29 10:10:18;;;;;;;5.90;4.20;;;23.20;92.70;;;;;;4987671;28;20034;-83
2022/06/29 10:16:05;;;;;;;8.98;4.53;;;24.10;91.00;;;;;;5021316;28;20121;-84
2022/06/29 10:18:55;;;;;;;5.28;4.78;;;24.50;89.80;;;;;;4990972;28;20030;-83
2022/06/29 10:21:27;;;;;;;6.40;4.60;;;24.50;88.50;;;;;;5016408;28;20030;-83
2022/06/29 10:23:57;;;;;;;4.93;4.43;;;24.40;87.00;;;;;;4984734;28;20022;-82
2022/06/29 10:26:30;;;;;;;6.72;4.60;;;24.40;87.80;;;;;;4986668;28;20022;-82
2022/06/29 10:29:19;;;;;;;8.10;3.97;;;24.40;87.20;;;;;;4992341;28;20037;-82
2022/06/29 10:31:54;;;;;;;5.43;3.97;;;24.40;87.30;;;;;;4997692;28;20093;-82
2022/06/29 10:34:28;;;;;;;7.30;4.70;;;24.30;87.40;;;;;;5005936;28;20041;-83
2022/06/29 10:37:03;;;;;;;6.07;5.47;;;24.40;87.90;;;;;;5019754;28;20038;-83
2022/06/29 10:39:44;;;;;;;4.32;3.95;;;24.20;88.10;;;;;;5027660;28;20076;-83
2022/06/29 10:45:16;;;;;;;5.85;5.10;;;24.20;90.00;;;;;;5026421;28;20060;-83
2022/06/29 10:47:54;;;;;;;5.82;4.90;;;24.30;87.40;;;;;;5025846;28;20038;-83
2022/06/29 10:50:26;;;;;;;6.07;3.78;;;24.50;86.90;;;;;;5008509;28;20022;-83
2022/06/29 10:53:14;;;;;;;4.63;3.83;;;24.70;86.70;;;;;;5023764;28;20045;-84
2022/06/29 10:56:00;;;;;;;5.20;4.28;;;24.80;85.00;;;;;;5003215;28;20026;-83
2022/06/29 10:58:26;;;;;;;4.45;4.05;;;24.60;84.70;;;;;;5000284;28;20088;-83
2022/06/29 11:00:55;;;;;;;4.45;4.05;;;24.50;85.50;;;;;;5018141;28;20082;-84
2022/06/29 11:03:26;;;;;;;6.53;4.50;;;24.70;83.90;;;;;;5015941;28;20128;-83
2022/06/29 11:16:55;;;;;;;4.13;3.72;;;26.80;76.10;;;;;;5010114;28;20073;-83
2022/06/29 11:19:27;;;;;;;7.07;4.47;;;27.10;74.40;;;;;;5019123;28;20502;-84
2022/06/29 11:22:09;;;;;;;6.18;3.88;;;27.30;73.50;;;;;;5023212;28;20017;-83
2022/06/29 11:24:50;;;;;;;5.65;4.07;;;27.20;73.10;;;;;;5025454;28;20022;-84
2022/06/29 11:27:29;;;;;;;5.05;4.65;;;26.70;72.60;;;;;;5018852;28;20077;-83
2022/06/29 11:29:55;;;;;;;6.82;4.40;;;26.20;73.70;;;;;;5018334;28;20042;-85
2022/06/29 11:32:32;;;;;;;6.20;3.95;;;26.10;74.50;;;;;;5021748;28;20052;-86
2022/06/29 11:34:58;;;;;;;6.10;3.47;;;26.30;74.00;;;;;;5017140;28;20045;-86
2022/06/29 11:37:24;;;;;;;4.13;3.72;;;26.00;73.80;;;;;;4998600;28;20390;-86
2022/06/29 11:39:50;;;;;;;3.15;2.95;;;25.90;74.30;;;;;;5016918;28;20045;-85
2022/06/29 11:45:21;;;;;;;4.10;3.50;;;25.80;75.00;;;;;;4991227;28;20117;-83
2022/06/29 11:47:54;;;;;;;8.00;4.30;;;25.60;76.60;;;;;;5043306;22;20053;-82
2022/06/29 11:50:21;;;;;;;7.00;3.78;;;25.70;77.40;;;;;;5022875;28;20030;-82
2022/06/29 11:52:49;;;;;;;5.03;3.65;;;26.00;75.70;;;;;;5006303;28;20022;-83
2022/06/29 11:55:15;;;;;;;4.15;3.47;;;26.10;74.80;;;;;;5004487;28;20390;-83
2022/06/29 11:57:41;;;;;;;5.00;4.05;;;26.10;75.60;;;;;;5004245;28;20034;-82
2022/06/29 12:00:09;;;;;;;6.68;4.55;;;26.30;73.30;;;;;;5005528;28;20042;-81
2022/06/29 12:02:34;;;;;;;4.18;3.10;;;26.10;72.60;;;;;;5004897;28;20038;-80
2022/06/29 12:05:02;;;;;;;3.58;3.28;;;25.80;73.70;;;;;;4987470;28;20030;-83
2022/06/29 12:07:31;;;;;;;4.90;3.95;;;25.60;74.80;;;;;;4987136;28;20038;-82
2022/06/29 12:09:58;;;;;;;5.00;3.47;;;25.60;74.50;;;;;;4993440;28;20029;-84
2022/06/29 12:12:23;;;;;;;5.70;3.60;;;25.70;74.40;;;;;;5015996;28;20007;-82
2022/06/29 12:14:49;;;;;;;6.72;3.50;;;25.80;74.40;;;;;;5005469;28;20093;-81
2022/06/29 12:17:15;;;;;;;3.72;3.33;;;25.80;74.40;;;;;;5002950;28;20046;-81
2022/06/29 12:19:42;;;;;;;4.50;3.60;;;25.80;74.30;;;;;;5005320;28;20030;-82
2022/06/29 12:22:08;;;;;;;5.00;3.05;;;25.70;73.70;;;;;;5008616;28;20471;-83
2022/06/29 12:24:34;;;;;;;4.95;3.42;;;25.50;74.80;;;;;;4988849;28;20023;-82
2022/06/29 12:26:59;;;;;;;6.78;3.35;;;25.20;74.30;;;;;;4990680;28;20092;-83
2022/06/29 12:29:25;;;;;;;8.73;3.20;;;24.90;76.10;;;;;;4991265;28;20026;-81
2022/06/29 12:31:51;;;;;;;4.22;3.83;;;24.80;76.50;;;;;;5024473;28;20030;-82
2022/06/29 12:34:17;;;;;;;5.95;3.60;;;24.70;77.20;;;;;;5014627;28;20438;-82
2022/06/29 12:36:43;;;;;;;4.50;4.07;;;24.60;78.40;;;;;;5016984;28;20030;-82
2022/06/29 12:39:09;;;;;;;7.45;4.20;;;24.60;78.70;;;;;;5027368;28;20337;-81
2022/06/29 12:41:35;;;;;;;8.10;3.83;;;24.70;78.70;;;;;;5025268;28;20021;-81
2022/06/29 12:44:02;;;;;;;6.47;3.35;;;25.00;78.00;;;;;;5021915;28;20045;-82
2022/06/29 12:46:33;;;;;;;6.13;3.42;;;25.30;77.40;;;;;;4991686;28;20482;-82
2022/06/29 12:49:03;;;;;;;4.93;3.60;;;25.70;76.70;;;;;;5020471;28;20030;-81
2022/06/29 12:51:30;;;;;;;5.65;3.55;;;26.10;74.30;;;;;;5027050;28;20113;-82
2022/06/29 12:53:55;;;;;;;8.00;3.75;;;26.50;73.60;;;;;;5016449;28;20105;-83
2022/06/29 12:56:21;;;;;;;3.33;3.03;;;26.90;71.50;;;;;;5006213;28;20038;-83
2022/06/29 12:58:47;;;;;;;4.18;3.70;;;27.00;70.00;;;;;;5006216;28;20034;-82
2022/06/29 13:01:13;;;;;;;4.35;3.28;;;27.00;69.40;;;;;;5009171;28;20056;-82
2022/06/29 13:03:38;;;;;;;4.65;3.67;;;26.90;69.30;;;;;;5007677;28;20030;-83
2022/06/29 13:06:05;;;;;;;4.40;3.40;;;26.70;69.10;;;;;;5005686;28;20026;-83
2022/06/29 13:08:31;;;;;;;3.40;3.10;;;26.80;69.20;;;;;;5013452;28;20030;-83
2022/06/29 13:10:59;;;;;;;3.70;3.20;;;26.90;70.30;;;;;;5008099;28;20052;-82
2022/06/29 13:13:28;;;;;;;4.03;2.95;;;27.00;69.60;;;;;;5004398;28;20026;-83
2022/06/29 13:15:54;;;;;;;4.13;3.20;;;27.10;69.90;;;;;;5007452;28;20372;-81
2022/06/29 13:18:20;;;;;;;4.68;2.92;;;27.10;69.30;;;;;;5004695;28;20057;-83
2022/06/29 13:20:46;;;;;;;3.00;2.70;;;26.80;68.90;;;;;;5006249;28;20031;-82
2022/06/29 13:23:14;;;;;;;3.83;3.10;;;26.70;69.50;;;;;;4990419;28;20046;-83